Time;durP1;ratioP1;P1;durP2;ratioP2;P2;SDS_P1;SDS_P2;PMS_P1;PMS_P2;Temp;Humidity;BMP_temperature;BMP_pressure;BME280_temperature;BME280_humidity;BME280_pressure;Samples;Min_cycle;Max_cycle;Signal;HPM_P1;HPM_P2
2021/08/04 00:00:25;;;;;;;13.18;7.78;;;;;;;27.01;59.74;100277.31;5012553;28;20088;-67
2021/08/04 00:02:51;;;;;;;13.43;8.00;;;;;;;26.91;60.16;100287.38;5012549;28;20056;-67
2021/08/04 00:05:17;;;;;;;11.90;7.30;;;;;;;26.74;60.70;100282.63;5012961;28;20065;-67
2021/08/04 00:07:43;;;;;;;15.02;7.78;;;;;;;26.66;60.93;100297.88;5010843;28;20061;-67
2021/08/04 00:10:09;;;;;;;13.70;7.93;;;;;;;26.57;61.10;100299.91;5012631;28;20484;-67
2021/08/04 00:12:34;;;;;;;15.77;8.77;;;;;;;26.47;61.45;100296.69;5012574;28;20028;-67
2021/08/04 00:15:00;;;;;;;13.35;8.13;;;;;;;26.43;61.65;100295.06;5012241;28;20037;-67
2021/08/04 00:17:25;;;;;;;14.75;8.35;;;;;;;26.42;61.59;100280.09;5012480;28;20057;-67
2021/08/04 00:19:51;;;;;;;12.20;7.90;;;;;;;26.53;61.55;100287.69;5012545;28;20033;-67
2021/08/04 00:22:16;;;;;;;14.50;8.23;;;;;;;26.60;61.40;100281.25;5012521;28;20037;-67
2021/08/04 00:24:42;;;;;;;12.43;8.65;;;;;;;26.50;61.96;100281.63;5012229;28;20057;-67
2021/08/04 00:27:07;;;;;;;14.82;8.15;;;;;;;26.41;62.36;100282.78;5012260;28;20447;-66
2021/08/04 00:29:33;;;;;;;11.07;8.15;;;;;;;26.38;62.69;100269.63;5012298;28;20465;-67
2021/08/04 00:31:58;;;;;;;12.80;8.02;;;;;;;26.14;62.79;100237.75;5011992;28;20033;-67
2021/08/04 00:34:24;;;;;;;12.98;8.68;;;;;;;26.32;62.85;100276.88;5012054;28;20088;-67
2021/08/04 00:36:49;;;;;;;14.60;8.88;;;;;;;26.37;62.78;100263.50;5012436;28;20045;-67
2021/08/04 00:39:16;;;;;;;13.38;8.05;;;;;;;26.42;63.17;100281.88;5012138;28;20075;-67
2021/08/04 00:41:42;;;;;;;13.48;8.52;;;;;;;26.22;63.59;100283.38;5012111;28;20180;-67
2021/08/04 00:44:08;;;;;;;14.77;8.90;;;;;;;26.02;64.63;100285.72;5011906;28;20527;-67
2021/08/04 00:46:42;;;;;;;14.75;8.05;;;;;;;25.99;64.48;100284.03;5011816;28;20030;-67
2021/08/04 00:49:09;;;;;;;15.30;8.25;;;;;;;25.90;64.97;100279.88;5012258;28;20075;-67
2021/08/04 00:51:34;;;;;;;15.75;8.45;;;;;;;25.86;65.23;100274.72;5012155;28;20026;-67
2021/08/04 00:54:03;;;;;;;15.13;8.50;;;;;;;25.82;65.66;100281.88;5012023;28;20048;-67
2021/08/04 00:56:29;;;;;;;21.57;9.67;;;;;;;25.86;65.63;100287.94;5012064;28;20069;-66
2021/08/04 00:58:54;;;;;;;16.48;9.15;;;;;;;26.04;65.68;100278.59;5011899;28;20783;-66
2021/08/04 01:01:22;;;;;;;15.95;9.15;;;;;;;26.05;65.75;100289.13;5011897;28;20115;-67
2021/08/04 01:03:55;;;;;;;17.58;8.77;;;;;;;26.05;65.71;100296.22;5011875;28;20034;-67
2021/08/04 01:06:25;;;;;;;17.05;9.45;;;;;;;26.06;65.85;100290.06;5011817;28;20041;-67
2021/08/04 01:08:55;;;;;;;14.15;8.25;;;;;;;25.86;66.17;100267.66;5011876;28;20030;-66
2021/08/04 01:11:26;;;;;;;15.88;9.43;;;;;;;25.93;66.92;100285.09;5011687;28;20041;-67
2021/08/04 01:13:55;;;;;;;16.85;8.95;;;;;;;25.96;66.85;100285.00;5011904;28;20033;-66
2021/08/04 01:16:27;;;;;;;16.70;8.63;;;;;;;25.84;66.50;100254.50;5011693;28;20116;-67
2021/08/04 01:19:13;;;;;;;18.40;9.18;;;;;;;26.00;66.97;100283.13;5013394;28;20033;-67
2021/08/04 01:22:08;;;;;;;17.73;9.73;;;;;;;26.05;66.89;100286.50;5015534;28;20038;-71
2021/08/04 01:25:04;;;;;;;18.38;9.45;;;;;;;26.06;66.98;100282.13;5015383;28;20042;-67
2021/08/04 01:27:30;;;;;;;15.95;9.15;;;;;;;26.21;66.55;100278.13;4954946;29;20564;-67
2021/08/04 01:29:58;;;;;;;15.07;8.98;;;;;;;26.27;66.31;100284.09;4955073;29;20051;-67
2021/08/04 01:32:25;;;;;;;18.00;9.07;;;;;;;26.31;66.14;100285.72;4954718;29;20494;-67
2021/08/04 01:34:52;;;;;;;18.63;9.57;;;;;;;26.21;66.64;100273.69;4954939;29;20035;-67
2021/08/04 01:37:21;;;;;;;19.13;9.25;;;;;;;25.95;67.28;100279.75;4954771;29;20420;-66
2021/08/04 01:39:48;;;;;;;20.83;9.63;;;;;;;25.91;67.95;100283.41;4955087;29;20035;-67
2021/08/04 01:42:15;;;;;;;14.52;8.95;;;;;;;26.09;68.00;100274.06;4954700;29;20043;-67
2021/08/04 01:44:41;;;;;;;20.67;11.07;;;;;;;26.06;67.60;100245.06;4954692;29;20043;-67
2021/08/04 01:47:09;;;;;;;26.75;11.38;;;;;;;26.34;67.92;100279.44;4954766;29;20449;-68
2021/08/04 01:49:36;;;;;;;30.73;11.23;;;;;;;26.47;67.35;100279.94;4954725;29;20412;-67
2021/08/04 01:52:01;;;;;;;17.90;8.70;;;;;;;26.52;66.85;100278.00;4954538;29;20554;-66
2021/08/04 01:54:27;;;;;;;17.85;8.77;;;;;;;26.60;66.61;100275.97;4954579;29;20035;-67
2021/08/04 01:56:55;;;;;;;14.82;8.48;;;;;;;26.55;66.04;100288.50;4954503;29;20047;-67
2021/08/04 01:59:23;;;;;;;18.65;8.68;;;;;;;26.56;66.14;100294.66;4954529;29;20030;-67
2021/08/04 02:01:49;;;;;;;13.30;8.85;;;;;;;26.67;65.73;100295.19;4954595;29;20027;-67
2021/08/04 02:04:14;;;;;;;12.73;8.27;;;;;;;26.70;66.12;100291.56;4985937;28;20050;-67
2021/08/04 02:06:50;;;;;;;11.30;7.93;;;;;;;26.52;66.40;100300.94;5015093;28;20092;-67
2021/08/04 02:09:24;;;;;;;15.10;8.40;;;;;;;26.33;67.23;100306.81;5014998;28;20088;-67
2021/08/04 02:12:11;;;;;;;16.77;9.70;;;;;;;26.36;66.72;100292.66;5014672;28;20472;-66
2021/08/04 02:15:17;;;;;;;16.05;9.10;;;;;;;26.43;66.43;100295.06;5014396;28;20029;-67
2021/08/04 02:17:48;;;;;;;15.85;8.38;;;;;;;26.18;66.61;100297.59;4954235;29;20039;-67
2021/08/04 02:20:28;;;;;;;12.80;9.02;;;;;;;25.77;68.05;100304.94;4953890;29;20039;-67
2021/08/04 02:23:21;;;;;;;13.70;8.57;;;;;;;25.75;67.53;100301.50;4953803;29;20090;-67
2021/08/04 02:25:54;;;;;;;13.75;8.50;;;;;;;25.87;66.96;100306.44;4953985;29;20557;-67
2021/08/04 02:28:23;;;;;;;12.88;8.95;;;;;;;25.96;66.53;100308.78;4954060;29;20043;-67
2021/08/04 02:30:51;;;;;;;15.38;8.90;;;;;;;25.98;66.45;100309.63;4937376;29;20044;-67
2021/08/04 02:33:18;;;;;;;10.35;8.50;;;;;;;25.98;66.21;100306.09;4953724;29;20094;-67
2021/08/04 02:35:45;;;;;;;17.88;9.52;;;;;;;26.02;65.43;100307.75;4953736;29;20172;-67
2021/08/04 02:38:12;;;;;;;12.85;8.00;;;;;;;26.06;64.61;100308.56;4953754;29;20027;-67
2021/08/04 02:40:38;;;;;;;14.15;8.73;;;;;;;26.14;63.99;100310.06;4953780;29;20426;-67
2021/08/04 02:43:04;;;;;;;18.48;8.50;;;;;;;26.17;63.47;100301.16;4953498;29;20063;-67
2021/08/04 02:45:30;;;;;;;18.88;9.13;;;;;;;26.18;63.49;100313.47;4953883;29;20027;-67
2021/08/04 02:47:56;;;;;;;15.80;8.45;;;;;;;26.12;63.90;100321.56;4953771;29;20043;-67
2021/08/04 02:50:23;;;;;;;15.98;8.55;;;;;;;25.68;64.79;100290.22;4953967;29;20035;-67
2021/08/04 02:52:49;;;;;;;18.90;9.65;;;;;;;25.82;65.14;100326.81;4971994;28;20034;-65
2021/08/04 02:55:14;;;;;;;15.35;8.23;;;;;;;25.90;64.88;100322.19;5013714;28;20037;-67
2021/08/04 02:57:40;;;;;;;15.30;8.68;;;;;;;25.88;64.05;100307.28;5013743;28;20037;-67
2021/08/04 03:00:06;;;;;;;14.23;8.73;;;;;;;25.94;63.95;100322.97;5013824;28;20026;-67
2021/08/04 03:02:33;;;;;;;15.43;8.32;;;;;;;25.92;63.97;100317.75;5013352;28;20464;-67
2021/08/04 03:04:59;;;;;;;13.07;8.43;;;;;;;26.04;63.59;100323.56;5014052;28;20030;-67
2021/08/04 03:07:24;;;;;;;14.85;8.80;;;;;;;26.10;63.50;100334.88;5013605;28;20464;-67
2021/08/04 03:09:50;;;;;;;11.20;8.20;;;;;;;26.05;63.25;100304.16;5013757;28;20032;-67
2021/08/04 03:12:15;;;;;;;19.38;8.90;;;;;;;26.27;63.68;100329.06;5013642;28;20028;-67
2021/08/04 03:14:41;;;;;;;18.45;9.77;;;;;;;26.29;63.70;100329.91;5013474;28;20112;-67
2021/08/04 03:17:06;;;;;;;21.52;9.25;;;;;;;26.03;64.55;100319.19;5013572;28;20476;-67
2021/08/04 03:19:32;;;;;;;30.05;9.30;;;;;;;26.18;64.63;100339.91;5013687;28;20022;-66
2021/08/04 03:21:57;;;;;;;13.98;8.63;;;;;;;25.93;65.65;100343.28;5013610;28;20053;-67
2021/08/04 03:24:22;;;;;;;25.83;9.95;;;;;;;25.93;66.25;100340.63;5013811;28;20034;-67
2021/08/04 03:26:48;;;;;;;30.27;10.13;;;;;;;25.91;65.67;100318.66;5013166;28;20099;-67
2021/08/04 03:29:14;;;;;;;32.80;9.93;;;;;;;26.25;65.43;100340.63;5013279;28;20026;-67
2021/08/04 03:31:39;;;;;;;20.67;10.52;;;;;;;26.15;64.94;100306.47;5013094;28;20406;-67
2021/08/04 03:34:04;;;;;;;21.83;8.82;;;;;;;26.32;64.94;100350.13;5013147;28;20107;-67
2021/08/04 03:36:30;;;;;;;16.15;8.90;;;;;;;26.14;65.63;100349.75;5013287;28;20400;-67
2021/08/04 03:38:56;;;;;;;18.77;9.43;;;;;;;26.07;66.47;100352.59;5013434;28;20089;-67
2021/08/04 03:41:21;;;;;;;22.90;9.75;;;;;;;25.74;66.05;100324.41;5012093;28;20451;-67
2021/08/04 03:43:47;;;;;;;22.95;10.50;;;;;;;25.94;66.24;100354.72;5012865;28;20108;-67
2021/08/04 03:46:12;;;;;;;28.48;11.30;;;;;;;25.83;66.57;100365.59;5012954;28;20030;-66
2021/08/04 03:48:38;;;;;;;19.33;9.75;;;;;;;25.55;66.90;100360.22;5013362;28;20034;-67
2021/08/04 03:51:03;;;;;;;14.60;9.63;;;;;;;25.39;67.27;100365.91;5013347;28;20056;-67
2021/08/04 03:53:29;;;;;;;18.02;9.80;;;;;;;25.26;67.82;100372.38;5012702;28;20026;-67
2021/08/04 03:55:55;;;;;;;13.00;9.43;;;;;;;25.10;68.19;100361.34;5012919;28;20084;-67
2021/08/04 03:58:20;;;;;;;14.32;9.45;;;;;;;25.09;68.68;100372.81;5012964;28;20566;-67
2021/08/04 04:00:46;;;;;;;14.77;9.73;;;;;;;25.00;68.96;100369.47;5012931;28;20030;-67
2021/08/04 04:03:12;;;;;;;19.25;9.65;;;;;;;25.11;69.00;100379.78;5013263;28;20033;-67
2021/08/04 04:05:37;;;;;;;13.85;10.38;;;;;;;25.20;69.27;100379.53;5012785;28;20040;-67
2021/08/04 04:08:03;;;;;;;16.83;9.55;;;;;;;25.00;69.72;100366.84;5012555;28;20034;-67
2021/08/04 04:10:28;;;;;;;19.73;10.02;;;;;;;24.89;70.00;100362.75;5012664;28;20026;-67
2021/08/04 04:12:54;;;;;;;31.48;10.88;;;;;;;25.03;70.96;100393.19;5012371;28;20033;-67
2021/08/04 04:15:19;;;;;;;21.10;11.07;;;;;;;25.09;70.64;100389.53;5012610;28;20022;-67
2021/08/04 04:17:45;;;;;;;48.83;14.45;;;;;;;25.01;70.70;100373.88;5012519;28;20034;-67
2021/08/04 04:20:12;;;;;;;50.97;14.60;;;;;;;25.07;71.31;100382.53;5012567;28;20113;-66
2021/08/04 04:22:38;;;;;;;21.35;10.80;;;;;;;24.94;71.23;100367.00;5012776;28;20030;-67
2021/08/04 04:25:04;;;;;;;17.48;10.70;;;;;;;25.19;71.24;100388.38;5012338;28;20030;-67
2021/08/04 04:27:30;;;;;;;15.95;9.90;;;;;;;25.12;71.84;100346.31;5012268;28;20034;-67
2021/08/04 04:29:56;;;;;;;25.17;11.20;;;;;;;25.44;72.61;100377.22;5012205;28;20049;-66
2021/08/04 04:32:22;;;;;;;24.25;10.63;;;;;;;25.63;72.50;100382.91;4977827;28;20492;-67
2021/08/04 04:34:48;;;;;;;33.40;11.18;;;;;;;25.77;72.12;100369.28;5012174;28;20072;-67
2021/08/04 04:37:13;;;;;;;29.55;12.32;;;;;;;26.04;72.21;100385.28;5012139;28;20459;-67
2021/08/04 04:39:39;;;;;;;17.92;10.05;;;;;;;26.02;72.02;100379.19;5012258;28;20026;-67
2021/08/04 04:42:04;;;;;;;24.08;9.27;;;;;;;25.99;72.08;100372.19;5012133;28;20129;-66
2021/08/04 04:44:30;;;;;;;17.90;10.10;;;;;;;26.13;71.38;100382.41;5012369;28;20474;-67
2021/08/04 04:46:55;;;;;;;19.73;10.38;;;;;;;26.22;71.62;100378.63;5012096;28;20022;-67
2021/08/04 04:49:21;;;;;;;21.42;10.43;;;;;;;26.34;70.60;100384.47;5012247;28;20025;-67
2021/08/04 04:51:46;;;;;;;16.65;10.32;;;;;;;26.28;71.49;100385.50;5011940;28;20030;-65
2021/08/04 04:54:12;;;;;;;17.08;9.88;;;;;;;26.38;71.13;100386.97;5011758;28;20436;-66
2021/08/04 04:56:38;;;;;;;14.05;9.02;;;;;;;26.48;70.18;100392.84;5011755;28;20029;-67
2021/08/04 04:59:03;;;;;;;13.93;9.63;;;;;;;26.43;70.64;100381.53;5011012;28;20558;-69
2021/08/04 05:01:32;;;;;;;13.32;9.65;;;;;;;26.50;70.52;100390.16;5011929;28;20611;-70
2021/08/04 05:03:57;;;;;;;15.05;9.57;;;;;;;26.40;70.82;100379.00;5010775;28;20038;-66
2021/08/04 05:06:23;;;;;;;14.70;9.27;;;;;;;26.46;71.61;100387.59;5011865;28;20496;-67
2021/08/04 05:08:48;;;;;;;13.13;9.27;;;;;;;26.38;71.99;100394.03;5012162;28;20034;-67
2021/08/04 05:11:13;;;;;;;12.27;9.30;;;;;;;26.35;71.91;100383.56;5011693;28;20030;-67
2021/08/04 05:13:39;;;;;;;13.35;9.38;;;;;;;26.54;71.44;100400.59;5011788;28;20026;-67
2021/08/04 05:16:05;;;;;;;14.60;8.88;;;;;;;26.44;71.40;100385.91;5011840;28;20477;-67
2021/08/04 05:18:31;;;;;;;19.98;9.52;;;;;;;26.63;71.70;100404.72;5011810;28;20033;-67
2021/08/04 05:20:56;;;;;;;16.73;9.10;;;;;;;26.65;71.69;100405.56;5011863;28;20022;-67
2021/08/04 05:23:22;;;;;;;13.13;8.48;;;;;;;26.66;69.50;100370.22;5011965;28;20033;-67
2021/08/04 05:25:47;;;;;;;16.90;8.75;;;;;;;26.64;68.91;100394.13;5011659;28;20036;-69
2021/08/04 05:28:13;;;;;;;17.00;9.27;;;;;;;26.78;68.96;100400.78;5011937;28;20088;-67
2021/08/04 05:30:38;;;;;;;16.42;9.52;;;;;;;26.84;68.19;100413.81;5011817;28;20385;-67
2021/08/04 05:33:04;;;;;;;11.75;8.70;;;;;;;26.99;68.76;100419.56;5011628;28;20402;-65
2021/08/04 05:35:29;;;;;;;23.73;9.45;;;;;;;27.02;67.98;100419.47;5011464;28;20411;-67
2021/08/04 05:37:55;;;;;;;14.50;8.50;;;;;;;27.06;66.87;100415.81;5012091;28;20049;-67
2021/08/04 05:40:20;;;;;;;16.42;8.50;;;;;;;27.14;66.07;100413.75;5011621;28;20037;-67
2021/08/04 05:42:46;;;;;;;22.95;9.00;;;;;;;27.27;65.57;100420.38;5011683;28;20029;-67
2021/08/04 05:45:11;;;;;;;15.68;9.32;;;;;;;27.28;65.80;100400.91;5011679;28;20443;-67
2021/08/04 05:47:37;;;;;;;21.25;9.25;;;;;;;27.40;65.90;100407.63;5011372;28;20036;-67
2021/08/04 05:50:04;;;;;;;22.02;9.65;;;;;;;27.47;64.49;100413.56;5011453;28;20114;-67
2021/08/04 05:52:33;;;;;;;16.80;9.50;;;;;;;27.43;64.98;100381.00;5011189;28;20076;-67
2021/08/04 05:54:58;;;;;;;23.43;10.53;;;;;;;27.55;67.02;100414.19;5011213;28;20030;-67
2021/08/04 05:57:23;;;;;;;26.10;10.50;;;;;;;27.47;66.72;100395.03;5011544;28;20022;-67
2021/08/04 05:59:49;;;;;;;21.45;10.15;;;;;;;27.53;68.39;100417.81;5011501;28;20083;-67
2021/08/04 06:02:14;;;;;;;27.95;10.57;;;;;;;27.62;67.92;100421.94;5011154;28;20156;-67
2021/08/04 06:04:40;;;;;;;29.05;11.45;;;;;;;27.51;66.75;100412.53;5012570;28;20073;-67
2021/08/04 06:07:05;;;;;;;20.15;10.95;;;;;;;27.44;68.02;100427.81;5014872;28;20477;-67
2021/08/04 06:09:31;;;;;;;22.63;10.63;;;;;;;27.30;66.96;100406.16;5014674;28;20037;-66
2021/08/04 06:11:57;;;;;;;36.63;12.10;;;;;;;27.34;68.27;100429.00;5014557;28;20037;-66
2021/08/04 06:14:23;;;;;;;39.00;13.13;;;;;;;27.04;70.31;100429.09;5014656;28;20037;-66
2021/08/04 06:16:48;;;;;;;35.72;12.40;;;;;;;27.17;69.10;100437.50;5014732;28;20026;-67
2021/08/04 06:19:14;;;;;;;42.70;12.00;;;;;;;27.34;67.79;100434.31;4996590;28;20125;-65
2021/08/04 06:21:39;;;;;;;26.38;12.27;;;;;;;27.38;69.22;100430.63;5014545;28;20025;-67
2021/08/04 06:24:05;;;;;;;33.63;12.20;;;;;;;27.44;69.60;100433.13;4992644;28;20105;-69
2021/08/04 06:26:30;;;;;;;27.75;11.55;;;;;;;27.04;68.86;100417.63;4992585;28;20058;-66
2021/08/04 06:28:56;;;;;;;31.38;11.15;;;;;;;27.19;70.06;100434.81;4992870;28;20453;-67
2021/08/04 06:31:21;;;;;;;25.17;10.75;;;;;;;27.32;69.26;100428.19;4992581;28;20136;-66
2021/08/04 06:33:47;;;;;;;22.50;10.57;;;;;;;27.45;67.68;100426.00;4992602;28;20061;-67
2021/08/04 06:36:12;;;;;;;21.70;11.07;;;;;;;27.30;68.20;100432.66;4992543;28;20072;-66
2021/08/04 06:38:38;;;;;;;24.33;10.95;;;;;;;27.36;67.51;100419.22;4992761;28;20412;-67
2021/08/04 06:41:03;;;;;;;24.80;11.10;;;;;;;27.42;68.94;100424.34;4992745;28;20508;-67
2021/08/04 06:43:29;;;;;;;26.38;11.77;;;;;;;27.58;67.84;100423.81;4992637;28;20042;-67
2021/08/04 06:45:54;;;;;;;23.65;10.98;;;;;;;27.75;66.81;100420.56;4992449;28;20031;-67
2021/08/04 06:48:20;;;;;;;26.98;10.95;;;;;;;27.90;65.62;100428.00;4992474;28;20474;-66
2021/08/04 06:50:46;;;;;;;26.05;11.88;;;;;;;27.86;65.76;100406.91;4992498;28;20038;-67
2021/08/04 06:53:12;;;;;;;27.63;10.25;;;;;;;28.10;64.24;100429.06;4992498;28;20504;-67
2021/08/04 06:55:37;;;;;;;23.27;10.68;;;;;;;28.12;61.79;100419.25;5007913;28;20038;-67
2021/08/04 06:58:03;;;;;;;26.50;10.30;;;;;;;28.11;61.78;100417.53;5013896;28;20109;-67
2021/08/04 07:00:28;;;;;;;29.42;10.82;;;;;;;27.92;60.74;100393.44;5013878;28;20052;-67
2021/08/04 07:02:54;;;;;;;25.48;10.35;;;;;;;28.08;61.28;100389.31;5013824;28;20037;-67
2021/08/04 07:05:19;;;;;;;24.50;9.35;;;;;;;28.41;59.62;100406.66;5013896;28;20041;-67
2021/08/04 07:07:45;;;;;;;21.95;9.93;;;;;;;28.67;58.68;100424.28;5013645;28;20058;-67
2021/08/04 07:10:12;;;;;;;20.05;9.38;;;;;;;28.77;59.12;100434.56;5013746;28;20033;-67
2021/08/04 07:12:37;;;;;;;23.05;10.45;;;;;;;28.57;58.85;100429.09;5013769;28;20029;-67
2021/08/04 07:15:03;;;;;;;18.38;9.48;;;;;;;28.60;57.99;100438.72;5013985;28;20408;-67
2021/08/04 07:17:46;;;;;;;21.58;8.77;;;;;;;28.88;57.35;100435.84;5013529;28;20107;-67
2021/08/04 07:20:16;;;;;;;16.88;9.13;;;;;;;29.05;57.16;100421.03;5013459;28;20454;-67
2021/08/04 07:22:42;;;;;;;23.85;9.77;;;;;;;29.28;57.52;100427.19;5014043;28;20026;-67
2021/08/04 07:25:08;;;;;;;17.33;8.45;;;;;;;29.34;55.43;100429.63;5013659;28;20034;-67
2021/08/04 07:27:37;;;;;;;15.05;8.57;;;;;;;29.57;56.22;100425.09;5013534;28;20030;-67
2021/08/04 07:30:08;;;;;;;16.30;9.02;;;;;;;29.67;54.31;100419.31;5013524;28;20054;-67
2021/08/04 07:32:35;;;;;;;13.68;8.38;;;;;;;29.67;56.04;100413.13;4994998;28;20054;-67
2021/08/04 07:35:01;;;;;;;22.10;9.52;;;;;;;29.79;55.44;100407.25;5013082;28;20049;-67
2021/08/04 07:37:28;;;;;;;20.20;9.02;;;;;;;29.81;57.53;100388.59;5013233;28;20031;-68
2021/08/04 07:39:56;;;;;;;20.80;9.73;;;;;;;30.02;56.34;100402.75;5013284;28;20094;-67
2021/08/04 07:42:22;;;;;;;17.73;8.05;;;;;;;30.05;52.76;100397.28;5013235;28;20022;-67
2021/08/04 07:44:47;;;;;;;13.35;7.90;;;;;;;30.03;52.12;100396.47;5012900;28;20727;-67
2021/08/04 07:47:14;;;;;;;15.35;8.18;;;;;;;29.80;52.21;100370.91;5011704;28;20026;-66
2021/08/04 07:49:39;;;;;;;17.90;8.15;;;;;;;30.09;51.91;100395.34;5012927;28;20408;-67
2021/08/04 07:52:05;;;;;;;16.52;7.53;;;;;;;30.28;51.69;100398.91;4994610;28;20062;-65
2021/08/04 07:54:50;;;;;;;18.02;6.63;;;;;;;30.54;50.06;100395.97;5012658;28;20029;-67
2021/08/04 07:57:16;;;;;;;16.67;6.60;;;;;;;30.73;48.81;100398.59;4991006;28;20035;-67
2021/08/04 07:59:44;;;;;;;11.40;6.47;;;;;;;30.94;47.52;100397.56;4990751;28;20046;-67
2021/08/04 08:02:09;;;;;;;11.77;6.50;;;;;;;31.18;47.86;100396.41;4991064;28;20068;-67
2021/08/04 08:04:35;;;;;;;9.70;6.10;;;;;;;31.18;45.94;100370.63;4974761;28;20052;-67
2021/08/04 08:07:01;;;;;;;12.18;6.50;;;;;;;31.41;46.12;100390.78;4990707;28;20088;-67
2021/08/04 08:09:26;;;;;;;10.05;6.25;;;;;;;31.43;47.44;100391.56;4974993;28;20038;-67
2021/08/04 08:11:55;;;;;;;11.93;6.53;;;;;;;31.33;46.71;100397.44;4991030;28;20038;-67
2021/08/04 08:14:20;;;;;;;10.25;6.38;;;;;;;31.29;46.75;100381.59;4990572;28;20504;-67
2021/08/04 08:16:46;;;;;;;12.63;7.13;;;;;;;31.45;46.44;100387.03;4991075;28;20038;-67
2021/08/04 08:19:11;;;;;;;12.27;6.22;;;;;;;31.57;45.84;100390.84;4990735;28;20076;-66
2021/08/04 08:21:39;;;;;;;12.02;6.95;;;;;;;31.42;44.92;100378.31;4990816;28;20061;-67
2021/08/04 08:24:05;;;;;;;12.30;6.03;;;;;;;31.37;44.83;100378.53;4990794;28;20121;-67
2021/08/04 08:26:31;;;;;;;12.60;6.68;;;;;;;31.55;44.32;100370.53;4990527;28;20030;-67
2021/08/04 08:28:56;;;;;;;15.63;6.75;;;;;;;31.53;44.60;100354.59;5007124;28;20050;-68
2021/08/04 08:31:22;;;;;;;13.50;7.32;;;;;;;31.45;44.34;100331.00;5012521;28;20381;-67
2021/08/04 08:33:47;;;;;;;12.20;6.68;;;;;;;31.82;44.56;100368.22;5012449;28;20038;-67
2021/08/04 08:36:15;;;;;;;10.05;6.68;;;;;;;31.83;43.92;100367.28;5012137;28;20073;-67
2021/08/04 08:38:40;;;;;;;8.05;6.03;;;;;;;31.82;43.25;100368.22;5012376;28;20033;-67
2021/08/04 08:41:06;;;;;;;13.00;6.30;;;;;;;31.98;43.21;100368.25;5012378;28;20119;-66
2021/08/04 08:43:35;;;;;;;13.32;6.32;;;;;;;32.17;41.54;100364.59;5011950;28;20064;-67
2021/08/04 08:46:04;;;;;;;11.10;6.47;;;;;;;32.16;41.80;100360.19;5012275;28;20061;-68
2021/08/04 08:48:30;;;;;;;13.07;5.55;;;;;;;32.27;39.48;100365.81;5012164;28;20087;-67
2021/08/04 08:50:56;;;;;;;10.70;5.93;;;;;;;32.23;40.10;100372.28;5012184;28;20064;-67
2021/08/04 08:53:21;;;;;;;11.27;5.75;;;;;;;32.37;40.08;100361.66;5012184;28;20045;-67
2021/08/04 08:55:48;;;;;;;8.48;5.75;;;;;;;32.58;38.83;100367.63;5011796;28;20022;-68
2021/08/04 08:58:14;;;;;;;11.10;6.50;;;;;;;32.76;39.03;100351.50;4993989;28;20045;-68
2021/08/04 09:00:41;;;;;;;12.02;5.95;;;;;;;32.79;39.04;100343.31;5011876;28;20028;-67
2021/08/04 09:03:07;;;;;;;13.07;6.20;;;;;;;32.94;40.32;100346.03;5011944;28;20026;-69
2021/08/04 09:05:58;;;;;;;9.05;5.47;;;;;;;32.92;38.34;100334.56;5011438;28;20026;-65
2021/08/04 09:08:29;;;;;;;10.40;5.75;;;;;;;33.05;39.31;100328.41;5012096;28;20034;-66
2021/08/04 09:10:56;;;;;;;11.20;6.20;;;;;;;33.06;39.33;100335.47;5011621;28;20501;-68
2021/08/04 09:13:32;;;;;;;13.02;7.45;;;;;;;33.12;40.74;100323.53;5011958;28;20030;-67
2021/08/04 09:16:06;;;;;;;12.30;6.57;;;;;;;33.26;39.97;100322.72;5010424;28;20030;-68
2021/08/04 09:18:39;;;;;;;10.52;6.78;;;;;;;33.29;40.11;100309.19;5011759;28;20179;-67
2021/08/04 09:21:04;;;;;;;14.05;6.28;;;;;;;33.36;41.18;100313.19;5011624;28;20030;-71
2021/08/04 09:23:31;;;;;;;15.63;7.32;;;;;;;33.41;41.02;100317.41;5011712;28;20366;-68
2021/08/04 09:26:02;;;;;;;11.85;6.63;;;;;;;33.32;40.10;100282.25;5010789;28;20044;-68
2021/08/04 09:28:28;;;;;;;14.43;7.18;;;;;;;33.62;39.85;100299.16;5011751;28;20512;-68
2021/08/04 09:31:03;;;;;;;11.43;6.20;;;;;;;33.70;39.48;100305.75;5011524;28;20500;-68
2021/08/04 09:33:36;;;;;;;12.85;6.50;;;;;;;33.75;38.92;100293.88;5011699;28;20030;-68
2021/08/04 09:36:03;;;;;;;13.02;6.82;;;;;;;33.71;39.03;100291.41;5011438;28;20030;-68
2021/08/04 09:38:28;;;;;;;10.55;6.82;;;;;;;33.60;38.09;100271.59;5011611;28;20057;-67
2021/08/04 09:41:18;;;;;;;12.55;6.93;;;;;;;33.69;39.52;100290.63;4996299;28;20042;-68
2021/08/04 09:43:50;;;;;;;;;;;;;;;33.70;38.57;100292.34;5015850;28;20061;-68
2021/08/04 09:46:26;;;;;;;12.68;6.65;;;;;;;33.90;38.66;100292.94;5015369;28;20462;-66
2021/08/04 09:48:52;;;;;;;14.43;6.55;;;;;;;33.92;39.13;100291.03;5014697;28;20037;-66
2021/08/04 09:51:19;;;;;;;13.93;6.80;;;;;;;34.03;37.18;100260.88;5015389;28;20030;-68
2021/08/04 09:53:49;;;;;;;12.43;6.60;;;;;;;34.30;36.92;100278.78;4996805;28;20038;-68
2021/08/04 09:56:18;;;;;;;12.63;6.82;;;;;;;34.74;36.05;100282.16;5015017;28;20025;-68
2021/08/04 09:58:47;;;;;;;11.48;6.25;;;;;;;34.86;35.10;100270.63;5014950;28;20646;-68
2021/08/04 10:01:15;;;;;;;9.90;6.82;;;;;;;34.93;35.23;100257.66;5015272;28;20518;-68
2021/08/04 10:04:08;;;;;;;9.73;6.72;;;;;;;35.05;35.45;100270.22;5015288;28;20097;-67
2021/08/04 10:06:36;;;;;;;12.23;6.18;;;;;;;34.79;35.22;100239.78;5015017;28;20037;-67
2021/08/04 10:09:03;;;;;;;9.57;6.28;;;;;;;34.98;34.43;100255.50;5013289;28;20570;-68
2021/08/04 10:11:30;;;;;;;12.45;5.78;;;;;;;35.26;33.70;100257.13;5014705;28;20034;-69
2021/08/04 10:13:58;;;;;;;12.32;7.10;;;;;;;35.34;34.14;100264.63;5014639;28;20030;-67
2021/08/04 10:16:36;;;;;;;13.50;5.93;;;;;;;35.17;29.71;100260.47;5014713;28;20116;-67
2021/08/04 10:19:04;;;;;;;15.83;6.07;;;;;;;35.33;30.66;100256.69;4996534;28;20416;-70
2021/08/04 10:21:34;;;;;;;12.73;5.90;;;;;;;34.92;29.12;100254.13;5014466;28;20453;-68
2021/08/04 10:24:06;;;;;;;11.45;6.18;;;;;;;34.98;30.29;100255.50;5013471;28;20037;-67
2021/08/04 10:26:34;;;;;;;12.90;5.85;;;;;;;34.80;28.96;100246.88;5014397;28;20488;-68
2021/08/04 10:29:00;;;;;;;11.63;5.88;;;;;;;35.22;29.18;100238.66;5013384;28;20091;-68
2021/08/04 10:31:27;;;;;;;13.40;6.13;;;;;;;35.45;29.91;100240.63;5014306;28;20045;-68
2021/08/04 10:33:54;;;;;;;18.88;6.47;;;;;;;35.24;28.91;100231.34;5014301;28;20025;-67
2021/08/04 10:36:21;;;;;;;15.63;6.32;;;;;;;35.31;28.94;100238.00;5013990;28;20121;-68
2021/08/04 10:38:59;;;;;;;11.48;5.93;;;;;;;35.83;28.49;100233.44;5014473;28;20392;-68
2021/08/04 10:41:27;;;;;;;12.60;5.68;;;;;;;35.86;27.50;100226.97;5013103;28;20492;-68
2021/08/04 10:43:57;;;;;;;15.35;6.38;;;;;;;35.99;27.71;100219.75;5014495;28;20099;-68
2021/08/04 10:46:31;;;;;;;9.20;6.35;;;;;;;36.00;27.66;100209.88;5014272;28;20512;-70
2021/08/04 10:49:05;;;;;;;11.27;6.03;;;;;;;36.26;27.34;100219.53;5014421;28;20091;-68
2021/08/04 10:51:55;;;;;;;10.52;6.95;;;;;;;36.59;28.17;100209.03;5013950;28;20511;-68
2021/08/04 10:54:22;;;;;;;13.80;6.28;;;;;;;36.97;27.18;100204.34;5012701;28;20495;-68
2021/08/04 10:56:50;;;;;;;11.13;6.03;;;;;;;36.99;29.00;100191.66;5012887;28;20034;-68
2021/08/04 10:59:19;;;;;;;10.50;5.95;;;;;;;37.24;26.10;100204.84;5014107;28;20030;-68
2021/08/04 11:01:50;;;;;;;12.07;6.00;;;;;;;37.38;25.91;100208.31;5014157;28;20038;-68
2021/08/04 11:04:40;;;;;;;11.75;6.00;;;;;;;37.40;26.41;100200.97;5013955;28;20034;-67
2021/08/04 11:07:17;;;;;;;15.00;6.18;;;;;;;37.38;25.66;100193.00;5014069;28;20034;-68
2021/08/04 11:09:48;;;;;;;13.52;5.80;;;;;;;37.66;26.62;100192.59;4996083;28;20041;-68
2021/08/04 11:12:41;;;;;;;13.30;6.18;;;;;;;37.91;28.15;100185.22;5014049;28;20108;-68
2021/08/04 11:15:24;;;;;;;18.40;6.05;;;;;;;38.16;25.29;100189.38;5013753;28;20495;-68
2021/08/04 11:18:13;;;;;;;16.15;6.10;;;;;;;38.18;24.85;100180.22;5013350;28;20476;-68
2021/08/04 11:21:12;;;;;;;13.52;6.07;;;;;;;38.34;25.92;100150.13;4972505;28;20034;-67